sensor_id;sensor_type;location;lat;lon;timestamp;P1;durP1;ratioP1;P2;durP2;ratioP2
68247;SDS011;55064;49.636;12.164;2022-10-16T00:01:24;5.43;;;2.30;;
68247;SDS011;55064;49.636;12.164;2022-10-16T00:03:54;5.10;;;2.38;;
68247;SDS011;55064;49.636;12.164;2022-10-16T00:06:23;4.72;;;2.20;;
68247;SDS011;55064;49.636;12.164;2022-10-16T00:08:49;6.77;;;2.27;;
68247;SDS011;55064;49.636;12.164;2022-10-16T00:11:16;7.30;;;2.50;;
68247;SDS011;55064;49.636;12.164;2022-10-16T00:13:56;5.50;;;2.45;;
68247;SDS011;55064;49.636;12.164;2022-10-16T00:16:23;4.82;;;2.00;;
68247;SDS011;55064;49.636;12.164;2022-10-16T00:18:48;5.60;;;2.50;;
68247;SDS011;55064;49.636;12.164;2022-10-16T00:21:15;6.47;;;2.30;;
68247;SDS011;55064;49.636;12.164;2022-10-16T00:23:45;5.10;;;2.20;;
68247;SDS011;55064;49.636;12.164;2022-10-16T00:26:12;5.72;;;2.08;;
68247;SDS011;55064;49.636;12.164;2022-10-16T00:28:39;6.80;;;2.20;;
68247;SDS011;55064;49.636;12.164;2022-10-16T00:31:08;5.07;;;2.25;;
68247;SDS011;55064;49.636;12.164;2022-10-16T00:33:38;4.97;;;2.17;;
68247;SDS011;55064;49.636;12.164;2022-10-16T00:36:05;4.82;;;2.00;;
68247;SDS011;55064;49.636;12.164;2022-10-16T00:38:32;6.93;;;2.10;;
68247;SDS011;55064;49.636;12.164;2022-10-16T00:41:00;6.13;;;2.08;;
68247;SDS011;55064;49.636;12.164;2022-10-16T00:46:21;4.97;;;2.33;;
68247;SDS011;55064;49.636;12.164;2022-10-16T00:48:51;6.55;;;2.20;;
68247;SDS011;55064;49.636;12.164;2022-10-16T00:51:23;5.30;;;2.10;;
68247;SDS011;55064;49.636;12.164;2022-10-16T00:54:00;5.68;;;2.00;;
68247;SDS011;55064;49.636;12.164;2022-10-16T00:56:31;5.00;;;2.20;;
68247;SDS011;55064;49.636;12.164;2022-10-16T00:58:58;5.97;;;2.10;;
68247;SDS011;55064;49.636;12.164;2022-10-16T01:01:28;6.05;;;2.20;;
68247;SDS011;55064;49.636;12.164;2022-10-16T01:03:53;7.10;;;2.60;;
68247;SDS011;55064;49.636;12.164;2022-10-16T01:11:48;5.72;;;2.55;;
68247;SDS011;55064;49.636;12.164;2022-10-16T01:14:20;5.10;;;2.30;;
68247;SDS011;55064;49.636;12.164;2022-10-16T01:17:01;6.47;;;2.30;;
68247;SDS011;55064;49.636;12.164;2022-10-16T01:22:17;5.50;;;2.20;;
68247;SDS011;55064;49.636;12.164;2022-10-16T01:24:45;9.43;;;3.00;;
68247;SDS011;55064;49.636;12.164;2022-10-16T01:27:14;6.13;;;2.40;;
68247;SDS011;55064;49.636;12.164;2022-10-16T01:29:54;9.07;;;2.80;;
68247;SDS011;55064;49.636;12.164;2022-10-16T01:32:33;6.43;;;2.60;;
68247;SDS011;55064;49.636;12.164;2022-10-16T01:35:10;6.40;;;2.65;;
68247;SDS011;55064;49.636;12.164;2022-10-16T01:37:53;7.13;;;3.00;;
68247;SDS011;55064;49.636;12.164;2022-10-16T01:40:46;6.68;;;2.70;;
68247;SDS011;55064;49.636;12.164;2022-10-16T01:43:17;8.13;;;2.70;;
68247;SDS011;55064;49.636;12.164;2022-10-16T01:45:49;5.20;;;2.55;;
68247;SDS011;55064;49.636;12.164;2022-10-16T01:48:17;7.20;;;3.13;;
68247;SDS011;55064;49.636;12.164;2022-10-16T01:50:50;6.87;;;2.73;;
68247;SDS011;55064;49.636;12.164;2022-10-16T01:53:20;6.28;;;2.55;;
68247;SDS011;55064;49.636;12.164;2022-10-16T01:55:51;7.53;;;2.80;;
68247;SDS011;55064;49.636;12.164;2022-10-16T01:58:20;6.53;;;2.50;;
68247;SDS011;55064;49.636;12.164;2022-10-16T02:00:46;11.18;;;2.70;;
68247;SDS011;55064;49.636;12.164;2022-10-16T02:03:13;8.90;;;2.40;;
68247;SDS011;55064;49.636;12.164;2022-10-16T02:05:50;6.00;;;2.40;;
68247;SDS011;55064;49.636;12.164;2022-10-16T02:08:18;5.43;;;2.40;;
68247;SDS011;55064;49.636;12.164;2022-10-16T02:10:44;6.35;;;2.30;;
68247;SDS011;55064;49.636;12.164;2022-10-16T02:13:11;5.93;;;2.27;;
68247;SDS011;55064;49.636;12.164;2022-10-16T02:15:40;6.28;;;2.45;;
68247;SDS011;55064;49.636;12.164;2022-10-16T02:18:07;5.50;;;2.40;;
68247;SDS011;55064;49.636;12.164;2022-10-16T02:26:06;7.15;;;2.40;;
68247;SDS011;55064;49.636;12.164;2022-10-16T02:28:46;5.57;;;2.50;;
68247;SDS011;55064;49.636;12.164;2022-10-16T02:31:18;5.67;;;2.30;;
68247;SDS011;55064;49.636;12.164;2022-10-16T02:33:52;5.78;;;2.42;;
68247;SDS011;55064;49.636;12.164;2022-10-16T02:36:21;9.93;;;2.20;;
68247;SDS011;55064;49.636;12.164;2022-10-16T02:38:46;4.90;;;2.17;;
68247;SDS011;55064;49.636;12.164;2022-10-16T02:41:15;6.93;;;2.40;;
68247;SDS011;55064;49.636;12.164;2022-10-16T02:43:40;6.78;;;2.42;;
68247;SDS011;55064;49.636;12.164;2022-10-16T02:46:07;8.50;;;2.60;;
68247;SDS011;55064;49.636;12.164;2022-10-16T02:48:32;8.93;;;2.53;;
68247;SDS011;55064;49.636;12.164;2022-10-16T02:50:58;6.47;;;2.23;;
68247;SDS011;55064;49.636;12.164;2022-10-16T02:53:25;6.67;;;2.70;;
68247;SDS011;55064;49.636;12.164;2022-10-16T02:55:51;7.38;;;2.70;;
68247;SDS011;55064;49.636;12.164;2022-10-16T02:58:16;8.97;;;2.97;;
68247;SDS011;55064;49.636;12.164;2022-10-16T03:00:47;7.63;;;2.95;;
68247;SDS011;55064;49.636;12.164;2022-10-16T03:03:15;7.50;;;3.30;;
68247;SDS011;55064;49.636;12.164;2022-10-16T03:05:43;9.23;;;3.20;;
68247;SDS011;55064;49.636;12.164;2022-10-16T03:08:10;7.38;;;3.25;;
68247;SDS011;55064;49.636;12.164;2022-10-16T03:10:36;9.02;;;3.63;;
68247;SDS011;55064;49.636;12.164;2022-10-16T03:13:02;6.73;;;2.90;;
68247;SDS011;55064;49.636;12.164;2022-10-16T03:15:30;6.05;;;2.88;;
68247;SDS011;55064;49.636;12.164;2022-10-16T03:17:59;6.43;;;2.67;;
68247;SDS011;55064;49.636;12.164;2022-10-16T03:20:26;6.87;;;2.60;;
68247;SDS011;55064;49.636;12.164;2022-10-16T03:22:54;5.90;;;2.55;;
68247;SDS011;55064;49.636;12.164;2022-10-16T03:25:20;8.50;;;3.07;;
68247;SDS011;55064;49.636;12.164;2022-10-16T03:27:45;6.17;;;2.57;;
68247;SDS011;55064;49.636;12.164;2022-10-16T03:30:11;6.17;;;2.67;;
68247;SDS011;55064;49.636;12.164;2022-10-16T03:32:36;6.03;;;2.30;;
68247;SDS011;55064;49.636;12.164;2022-10-16T03:35:02;6.37;;;2.63;;
68247;SDS011;55064;49.636;12.164;2022-10-16T03:37:27;6.93;;;2.50;;
68247;SDS011;55064;49.636;12.164;2022-10-16T03:39:52;6.70;;;2.30;;
68247;SDS011;55064;49.636;12.164;2022-10-16T03:42:18;7.47;;;2.40;;
68247;SDS011;55064;49.636;12.164;2022-10-16T03:44:43;5.30;;;2.42;;
68247;SDS011;55064;49.636;12.164;2022-10-16T03:47:11;6.30;;;2.27;;
68247;SDS011;55064;49.636;12.164;2022-10-16T03:49:39;6.57;;;2.40;;
68247;SDS011;55064;49.636;12.164;2022-10-16T03:52:04;7.10;;;2.60;;
68247;SDS011;55064;49.636;12.164;2022-10-16T03:54:32;7.60;;;2.35;;
68247;SDS011;55064;49.636;12.164;2022-10-16T03:56:58;6.50;;;2.70;;
68247;SDS011;55064;49.636;12.164;2022-10-16T03:59:25;7.75;;;2.60;;
68247;SDS011;55064;49.636;12.164;2022-10-16T04:01:51;7.73;;;2.50;;
68247;SDS011;55064;49.636;12.164;2022-10-16T04:04:16;6.00;;;2.20;;
68247;SDS011;55064;49.636;12.164;2022-10-16T04:06:41;5.43;;;2.30;;
68247;SDS011;55064;49.636;12.164;2022-10-16T04:09:09;7.13;;;2.60;;
68247;SDS011;55064;49.636;12.164;2022-10-16T04:11:34;4.77;;;2.03;;
68247;SDS011;55064;49.636;12.164;2022-10-16T04:14:02;8.15;;;2.28;;
68247;SDS011;55064;49.636;12.164;2022-10-16T04:16:27;7.47;;;2.40;;
68247;SDS011;55064;49.636;12.164;2022-10-16T04:18:55;5.50;;;2.50;;
68247;SDS011;55064;49.636;12.164;2022-10-16T04:21:21;6.45;;;2.20;;
68247;SDS011;55064;49.636;12.164;2022-10-16T04:23:49;5.13;;;2.33;;
68247;SDS011;55064;49.636;12.164;2022-10-16T04:26:15;7.28;;;2.67;;
68247;SDS011;55064;49.636;12.164;2022-10-16T04:28:40;8.77;;;2.80;;
68247;SDS011;55064;49.636;12.164;2022-10-16T04:31:06;5.70;;;2.60;;
68247;SDS011;55064;49.636;12.164;2022-10-16T04:33:34;5.43;;;2.90;;
68247;SDS011;55064;49.636;12.164;2022-10-16T04:35:59;6.03;;;3.05;;
68247;SDS011;55064;49.636;12.164;2022-10-16T04:38:28;6.27;;;2.83;;
68247;SDS011;55064;49.636;12.164;2022-10-16T04:40:54;8.02;;;3.38;;
68247;SDS011;55064;49.636;12.164;2022-10-16T04:43:22;9.50;;;3.50;;
68247;SDS011;55064;49.636;12.164;2022-10-16T04:45:47;6.82;;;2.92;;
68247;SDS011;55064;49.636;12.164;2022-10-16T04:48:15;7.10;;;3.30;;
68247;SDS011;55064;49.636;12.164;2022-10-16T04:50:45;9.88;;;3.28;;
68247;SDS011;55064;49.636;12.164;2022-10-16T04:53:13;7.43;;;3.53;;
68247;SDS011;55064;49.636;12.164;2022-10-16T04:55:41;7.60;;;3.50;;
68247;SDS011;55064;49.636;12.164;2022-10-16T04:58:07;7.70;;;3.50;;
68247;SDS011;55064;49.636;12.164;2022-10-16T05:00:33;8.87;;;3.57;;
68247;SDS011;55064;49.636;12.164;2022-10-16T05:02:58;6.40;;;3.33;;
68247;SDS011;55064;49.636;12.164;2022-10-16T05:05:27;8.98;;;3.75;;
68247;SDS011;55064;49.636;12.164;2022-10-16T05:07:54;7.85;;;3.70;;
68247;SDS011;55064;49.636;12.164;2022-10-16T05:10:20;9.20;;;3.47;;
68247;SDS011;55064;49.636;12.164;2022-10-16T05:12:51;9.15;;;3.55;;
68247;SDS011;55064;49.636;12.164;2022-10-16T05:15:19;8.03;;;4.17;;
68247;SDS011;55064;49.636;12.164;2022-10-16T05:17:51;9.23;;;4.93;;
68247;SDS011;55064;49.636;12.164;2022-10-16T05:20:18;9.40;;;3.87;;
68247;SDS011;55064;49.636;12.164;2022-10-16T05:22:43;8.43;;;4.90;;
68247;SDS011;55064;49.636;12.164;2022-10-16T05:25:11;9.03;;;4.10;;
68247;SDS011;55064;49.636;12.164;2022-10-16T05:27:36;7.50;;;4.10;;
68247;SDS011;55064;49.636;12.164;2022-10-16T05:30:04;8.73;;;3.77;;
68247;SDS011;55064;49.636;12.164;2022-10-16T05:32:32;8.70;;;4.18;;
68247;SDS011;55064;49.636;12.164;2022-10-16T05:34:58;8.85;;;4.03;;
68247;SDS011;55064;49.636;12.164;2022-10-16T05:37:27;6.70;;;3.50;;
68247;SDS011;55064;49.636;12.164;2022-10-16T05:39:52;11.10;;;4.18;;
68247;SDS011;55064;49.636;12.164;2022-10-16T05:42:18;6.80;;;3.63;;
68247;SDS011;55064;49.636;12.164;2022-10-16T05:44:43;7.50;;;2.80;;
68247;SDS011;55064;49.636;12.164;2022-10-16T05:47:09;6.93;;;2.87;;
68247;SDS011;55064;49.636;12.164;2022-10-16T05:49:38;9.32;;;2.40;;
68247;SDS011;55064;49.636;12.164;2022-10-16T05:52:03;7.00;;;3.30;;
68247;SDS011;55064;49.636;12.164;2022-10-16T05:54:31;8.03;;;3.13;;
68247;SDS011;55064;49.636;12.164;2022-10-16T05:56:56;10.40;;;2.78;;
68247;SDS011;55064;49.636;12.164;2022-10-16T05:59:24;7.10;;;3.30;;
68247;SDS011;55064;49.636;12.164;2022-10-16T06:01:54;7.35;;;3.38;;
68247;SDS011;55064;49.636;12.164;2022-10-16T06:04:24;7.83;;;3.33;;
68247;SDS011;55064;49.636;12.164;2022-10-16T06:06:49;6.10;;;2.83;;
68247;SDS011;55064;49.636;12.164;2022-10-16T06:09:14;10.13;;;3.00;;
68247;SDS011;55064;49.636;12.164;2022-10-16T06:11:42;7.75;;;2.90;;
68247;SDS011;55064;49.636;12.164;2022-10-16T06:14:08;8.60;;;3.47;;
68247;SDS011;55064;49.636;12.164;2022-10-16T06:16:34;7.82;;;3.22;;
68247;SDS011;55064;49.636;12.164;2022-10-16T06:19:05;7.72;;;3.13;;
68247;SDS011;55064;49.636;12.164;2022-10-16T06:21:34;8.25;;;3.40;;
68247;SDS011;55064;49.636;12.164;2022-10-16T06:24:00;7.40;;;3.20;;
68247;SDS011;55064;49.636;12.164;2022-10-16T06:26:30;9.63;;;3.50;;
68247;SDS011;55064;49.636;12.164;2022-10-16T06:28:56;8.63;;;3.72;;
68247;SDS011;55064;49.636;12.164;2022-10-16T06:31:24;7.72;;;3.42;;
68247;SDS011;55064;49.636;12.164;2022-10-16T06:33:55;8.00;;;3.45;;
68247;SDS011;55064;49.636;12.164;2022-10-16T06:36:21;9.17;;;3.30;;
68247;SDS011;55064;49.636;12.164;2022-10-16T06:38:50;7.80;;;4.03;;
68247;SDS011;55064;49.636;12.164;2022-10-16T06:41:16;8.47;;;3.80;;
68247;SDS011;55064;49.636;12.164;2022-10-16T06:43:43;9.82;;;3.80;;
68247;SDS011;55064;49.636;12.164;2022-10-16T06:46:15;8.50;;;4.03;;
68247;SDS011;55064;49.636;12.164;2022-10-16T06:48:44;7.65;;;4.18;;
68247;SDS011;55064;49.636;12.164;2022-10-16T06:51:13;7.80;;;3.03;;
68247;SDS011;55064;49.636;12.164;2022-10-16T06:53:43;6.00;;;2.60;;
68247;SDS011;55064;49.636;12.164;2022-10-16T06:56:12;5.72;;;2.60;;
68247;SDS011;55064;49.636;12.164;2022-10-16T06:58:47;6.68;;;2.67;;
68247;SDS011;55064;49.636;12.164;2022-10-16T07:01:19;6.30;;;2.58;;
68247;SDS011;55064;49.636;12.164;2022-10-16T07:03:48;5.65;;;2.22;;
68247;SDS011;55064;49.636;12.164;2022-10-16T07:06:15;5.77;;;2.43;;
68247;SDS011;55064;49.636;12.164;2022-10-16T07:08:47;5.97;;;2.50;;
68247;SDS011;55064;49.636;12.164;2022-10-16T07:11:19;6.25;;;2.40;;
68247;SDS011;55064;49.636;12.164;2022-10-16T07:13:50;6.03;;;2.30;;
68247;SDS011;55064;49.636;12.164;2022-10-16T07:16:18;5.80;;;2.35;;
68247;SDS011;55064;49.636;12.164;2022-10-16T07:18:45;5.57;;;2.47;;
68247;SDS011;55064;49.636;12.164;2022-10-16T07:21:17;6.82;;;2.40;;
68247;SDS011;55064;49.636;12.164;2022-10-16T07:23:45;7.03;;;2.55;;
68247;SDS011;55064;49.636;12.164;2022-10-16T07:26:14;7.13;;;2.57;;
68247;SDS011;55064;49.636;12.164;2022-10-16T07:28:43;7.78;;;3.15;;
68247;SDS011;55064;49.636;12.164;2022-10-16T07:31:11;6.78;;;3.05;;
68247;SDS011;55064;49.636;12.164;2022-10-16T07:33:39;7.38;;;2.78;;
68247;SDS011;55064;49.636;12.164;2022-10-16T07:36:09;6.35;;;2.30;;
68247;SDS011;55064;49.636;12.164;2022-10-16T07:38:37;9.63;;;2.77;;
68247;SDS011;55064;49.636;12.164;2022-10-16T07:41:04;6.25;;;2.80;;
68247;SDS011;55064;49.636;12.164;2022-10-16T07:43:37;5.25;;;2.17;;
68247;SDS011;55064;49.636;12.164;2022-10-16T07:46:02;5.13;;;1.90;;
68247;SDS011;55064;49.636;12.164;2022-10-16T07:48:28;6.43;;;2.22;;
68247;SDS011;55064;49.636;12.164;2022-10-16T07:51:02;6.30;;;2.50;;
68247;SDS011;55064;49.636;12.164;2022-10-16T07:53:29;5.15;;;1.80;;
68247;SDS011;55064;49.636;12.164;2022-10-16T07:56:02;5.60;;;2.40;;
68247;SDS011;55064;49.636;12.164;2022-10-16T07:58:34;5.95;;;2.08;;
68247;SDS011;55064;49.636;12.164;2022-10-16T08:01:09;5.97;;;2.17;;
68247;SDS011;55064;49.636;12.164;2022-10-16T08:03:36;6.78;;;2.47;;
68247;SDS011;55064;49.636;12.164;2022-10-16T08:06:04;5.05;;;2.47;;
68247;SDS011;55064;49.636;12.164;2022-10-16T08:08:30;6.13;;;2.00;;
68247;SDS011;55064;49.636;12.164;2022-10-16T08:10:58;7.10;;;2.20;;
68247;SDS011;55064;49.636;12.164;2022-10-16T08:13:24;7.60;;;1.90;;
68247;SDS011;55064;49.636;12.164;2022-10-16T08:15:53;5.90;;;2.05;;
68247;SDS011;55064;49.636;12.164;2022-10-16T08:18:21;6.30;;;2.28;;
68247;SDS011;55064;49.636;12.164;2022-10-16T08:20:58;5.70;;;2.30;;
68247;SDS011;55064;49.636;12.164;2022-10-16T08:23:29;5.30;;;1.95;;
68247;SDS011;55064;49.636;12.164;2022-10-16T08:26:01;4.70;;;2.00;;
68247;SDS011;55064;49.636;12.164;2022-10-16T08:28:28;4.82;;;2.30;;
68247;SDS011;55064;49.636;12.164;2022-10-16T08:30:54;6.67;;;1.80;;
68247;SDS011;55064;49.636;12.164;2022-10-16T08:33:29;5.20;;;2.05;;
68247;SDS011;55064;49.636;12.164;2022-10-16T08:35:56;5.60;;;2.40;;
68247;SDS011;55064;49.636;12.164;2022-10-16T08:38:22;5.00;;;2.10;;
68247;SDS011;55064;49.636;12.164;2022-10-16T08:40:47;6.43;;;2.70;;
68247;SDS011;55064;49.636;12.164;2022-10-16T08:43:28;8.23;;;2.55;;
68247;SDS011;55064;49.636;12.164;2022-10-16T08:48:55;6.90;;;2.35;;
68247;SDS011;55064;49.636;12.164;2022-10-16T08:51:27;6.07;;;1.90;;
68247;SDS011;55064;49.636;12.164;2022-10-16T08:53:57;5.63;;;1.70;;
68247;SDS011;55064;49.636;12.164;2022-10-16T08:56:24;6.65;;;1.92;;
68247;SDS011;55064;49.636;12.164;2022-10-16T08:58:53;6.57;;;2.13;;
68247;SDS011;55064;49.636;12.164;2022-10-16T09:01:20;5.68;;;1.83;;
68247;SDS011;55064;49.636;12.164;2022-10-16T09:11:56;5.05;;;1.80;;
68247;SDS011;55064;49.636;12.164;2022-10-16T09:20:12;6.67;;;1.70;;
68247;SDS011;55064;49.636;12.164;2022-10-16T09:22:44;5.38;;;1.73;;
68247;SDS011;55064;49.636;12.164;2022-10-16T09:25:14;4.85;;;2.00;;
68247;SDS011;55064;49.636;12.164;2022-10-16T09:27:46;4.10;;;1.40;;
68247;SDS011;55064;49.636;12.164;2022-10-16T09:30:14;5.78;;;2.00;;
68247;SDS011;55064;49.636;12.164;2022-10-16T09:32:44;4.30;;;1.90;;
68247;SDS011;55064;49.636;12.164;2022-10-16T09:35:22;5.45;;;1.67;;
68247;SDS011;55064;49.636;12.164;2022-10-16T09:37:56;6.15;;;1.73;;
68247;SDS011;55064;49.636;12.164;2022-10-16T09:40:29;5.47;;;1.63;;
68247;SDS011;55064;49.636;12.164;2022-10-16T09:48:50;4.25;;;1.58;;
68247;SDS011;55064;49.636;12.164;2022-10-16T09:51:23;5.30;;;1.40;;
68247;SDS011;55064;49.636;12.164;2022-10-16T09:54:22;4.55;;;1.55;;
68247;SDS011;55064;49.636;12.164;2022-10-16T09:56:47;4.32;;;1.73;;
68247;SDS011;55064;49.636;12.164;2022-10-16T09:59:19;4.43;;;1.67;;
68247;SDS011;55064;49.636;12.164;2022-10-16T10:01:51;4.78;;;1.80;;
68247;SDS011;55064;49.636;12.164;2022-10-16T10:04:36;4.30;;;1.60;;
68247;SDS011;55064;49.636;12.164;2022-10-16T10:07:04;5.10;;;1.73;;
68247;SDS011;55064;49.636;12.164;2022-10-16T10:09:34;5.00;;;1.63;;
68247;SDS011;55064;49.636;12.164;2022-10-16T10:12:06;4.80;;;1.60;;
68247;SDS011;55064;49.636;12.164;2022-10-16T10:14:50;5.65;;;1.55;;
68247;SDS011;55064;49.636;12.164;2022-10-16T10:17:20;4.90;;;1.77;;
68247;SDS011;55064;49.636;12.164;2022-10-16T10:24:43;4.57;;;1.97;;
68247;SDS011;55064;49.636;12.164;2022-10-16T10:27:14;4.32;;;1.58;;
68247;SDS011;55064;49.636;12.164;2022-10-16T10:42:41;4.75;;;1.77;;
68247;SDS011;55064;49.636;12.164;2022-10-16T10:51:01;4.53;;;1.80;;
68247;SDS011;55064;49.636;12.164;2022-10-16T11:01:16;4.83;;;1.63;;
68247;SDS011;55064;49.636;12.164;2022-10-16T11:06:51;5.07;;;1.83;;
68247;SDS011;55064;49.636;12.164;2022-10-16T11:09:25;5.20;;;1.85;;
68247;SDS011;55064;49.636;12.164;2022-10-16T11:11:57;5.97;;;1.92;;
68247;SDS011;55064;49.636;12.164;2022-10-16T11:17:15;5.55;;;2.10;;
68247;SDS011;55064;49.636;12.164;2022-10-16T11:20:14;5.70;;;2.10;;
68247;SDS011;55064;49.636;12.164;2022-10-16T11:22:46;5.75;;;2.10;;
68247;SDS011;55064;49.636;12.164;2022-10-16T11:25:16;5.45;;;2.03;;
68247;SDS011;55064;49.636;12.164;2022-10-16T11:27:47;6.28;;;2.20;;
68247;SDS011;55064;49.636;12.164;2022-10-16T11:30:25;5.38;;;2.10;;
68247;SDS011;55064;49.636;12.164;2022-10-16T11:38:09;4.20;;;1.70;;
68247;SDS011;55064;49.636;12.164;2022-10-16T11:40:40;4.90;;;1.80;;
68247;SDS011;55064;49.636;12.164;2022-10-16T11:43:14;8.68;;;2.55;;
68247;SDS011;55064;49.636;12.164;2022-10-16T11:45:57;4.70;;;2.10;;
68247;SDS011;55064;49.636;12.164;2022-10-16T11:48:29;5.28;;;1.88;;
68247;SDS011;55064;49.636;12.164;2022-10-16T11:50:57;4.88;;;1.70;;
68247;SDS011;55064;49.636;12.164;2022-10-16T11:53:34;5.35;;;1.88;;
68247;SDS011;55064;49.636;12.164;2022-10-16T11:56:07;7.22;;;2.20;;
68247;SDS011;55064;49.636;12.164;2022-10-16T12:01:41;5.43;;;2.67;;
68247;SDS011;55064;49.636;12.164;2022-10-16T12:09:38;5.05;;;2.53;;
68247;SDS011;55064;49.636;12.164;2022-10-16T12:12:05;5.87;;;2.40;;
68247;SDS011;55064;49.636;12.164;2022-10-16T12:17:47;6.78;;;2.00;;
68247;SDS011;55064;49.636;12.164;2022-10-16T12:22:47;5.57;;;1.90;;
68247;SDS011;55064;49.636;12.164;2022-10-16T12:25:39;8.43;;;2.38;;
68247;SDS011;55064;49.636;12.164;2022-10-16T12:30:39;6.38;;;2.35;;
68247;SDS011;55064;49.636;12.164;2022-10-16T12:33:33;6.07;;;1.90;;
68247;SDS011;55064;49.636;12.164;2022-10-16T12:36:03;4.57;;;1.77;;
68247;SDS011;55064;49.636;12.164;2022-10-16T12:38:44;5.85;;;2.20;;
68247;SDS011;55064;49.636;12.164;2022-10-16T12:41:23;5.10;;;2.10;;
68247;SDS011;55064;49.636;12.164;2022-10-16T12:43:53;5.30;;;1.80;;
68247;SDS011;55064;49.636;12.164;2022-10-16T12:49:04;9.07;;;2.20;;
68247;SDS011;55064;49.636;12.164;2022-10-16T12:51:46;5.20;;;2.10;;
68247;SDS011;55064;49.636;12.164;2022-10-16T12:54:14;4.68;;;2.05;;
68247;SDS011;55064;49.636;12.164;2022-10-16T12:56:47;6.40;;;2.05;;
68247;SDS011;55064;49.636;12.164;2022-10-16T13:07:19;4.50;;;1.80;;
68247;SDS011;55064;49.636;12.164;2022-10-16T13:12:30;7.03;;;2.10;;
68247;SDS011;55064;49.636;12.164;2022-10-16T13:28:19;5.88;;;2.03;;
68247;SDS011;55064;49.636;12.164;2022-10-16T13:30:53;7.18;;;2.10;;
68247;SDS011;55064;49.636;12.164;2022-10-16T13:35:58;6.65;;;2.00;;
68247;SDS011;55064;49.636;12.164;2022-10-16T13:38:28;6.10;;;2.23;;
68247;SDS011;55064;49.636;12.164;2022-10-16T13:41:05;5.60;;;2.08;;
68247;SDS011;55064;49.636;12.164;2022-10-16T13:46:12;6.05;;;2.10;;
68247;SDS011;55064;49.636;12.164;2022-10-16T13:48:39;5.38;;;2.10;;
68247;SDS011;55064;49.636;12.164;2022-10-16T13:51:12;6.20;;;2.10;;
68247;SDS011;55064;49.636;12.164;2022-10-16T13:53:42;5.45;;;1.95;;
68247;SDS011;55064;49.636;12.164;2022-10-16T13:56:15;5.85;;;2.05;;
68247;SDS011;55064;49.636;12.164;2022-10-16T13:58:57;5.43;;;2.10;;
68247;SDS011;55064;49.636;12.164;2022-10-16T14:01:25;4.87;;;1.90;;
68247;SDS011;55064;49.636;12.164;2022-10-16T14:04:04;6.35;;;2.10;;
68247;SDS011;55064;49.636;12.164;2022-10-16T14:06:34;5.22;;;2.22;;
68247;SDS011;55064;49.636;12.164;2022-10-16T14:09:11;5.22;;;1.98;;
68247;SDS011;55064;49.636;12.164;2022-10-16T14:12:02;6.97;;;2.20;;
68247;SDS011;55064;49.636;12.164;2022-10-16T14:14:42;5.60;;;2.03;;
68247;SDS011;55064;49.636;12.164;2022-10-16T14:17:15;7.15;;;2.10;;
68247;SDS011;55064;49.636;12.164;2022-10-16T14:19:47;6.07;;;2.30;;
68247;SDS011;55064;49.636;12.164;2022-10-16T14:22:33;6.80;;;2.20;;
68247;SDS011;55064;49.636;12.164;2022-10-16T14:25:16;6.65;;;2.20;;
68247;SDS011;55064;49.636;12.164;2022-10-16T14:27:55;6.77;;;2.20;;
68247;SDS011;55064;49.636;12.164;2022-10-16T14:30:24;6.25;;;1.95;;
68247;SDS011;55064;49.636;12.164;2022-10-16T14:32:53;7.13;;;2.00;;
68247;SDS011;55064;49.636;12.164;2022-10-16T14:35:32;4.88;;;2.00;;
68247;SDS011;55064;49.636;12.164;2022-10-16T14:38:03;5.80;;;2.20;;
68247;SDS011;55064;49.636;12.164;2022-10-16T14:40:32;7.57;;;2.20;;
68247;SDS011;55064;49.636;12.164;2022-10-16T14:43:02;4.93;;;2.10;;
68247;SDS011;55064;49.636;12.164;2022-10-16T14:45:30;7.57;;;2.30;;
68247;SDS011;55064;49.636;12.164;2022-10-16T14:48:00;7.13;;;2.15;;
68247;SDS011;55064;49.636;12.164;2022-10-16T14:50:29;7.15;;;2.28;;
68247;SDS011;55064;49.636;12.164;2022-10-16T14:52:55;5.67;;;2.00;;
68247;SDS011;55064;49.636;12.164;2022-10-16T14:55:20;6.10;;;2.27;;
68247;SDS011;55064;49.636;12.164;2022-10-16T14:57:47;5.65;;;2.00;;
68247;SDS011;55064;49.636;12.164;2022-10-16T15:02:40;7.70;;;2.15;;
68247;SDS011;55064;49.636;12.164;2022-10-16T15:05:10;4.83;;;2.10;;
68247;SDS011;55064;49.636;12.164;2022-10-16T15:07:39;5.55;;;2.20;;
68247;SDS011;55064;49.636;12.164;2022-10-16T15:10:12;5.53;;;2.28;;
68247;SDS011;55064;49.636;12.164;2022-10-16T15:12:39;5.45;;;1.98;;
68247;SDS011;55064;49.636;12.164;2022-10-16T15:17:52;5.60;;;2.40;;
68247;SDS011;55064;49.636;12.164;2022-10-16T15:20:20;6.10;;;2.22;;
68247;SDS011;55064;49.636;12.164;2022-10-16T15:22:51;5.82;;;2.35;;
68247;SDS011;55064;49.636;12.164;2022-10-16T15:27:50;6.30;;;2.67;;
68247;SDS011;55064;49.636;12.164;2022-10-16T15:30:16;5.70;;;2.43;;
68247;SDS011;55064;49.636;12.164;2022-10-16T15:32:41;8.63;;;2.80;;
68247;SDS011;55064;49.636;12.164;2022-10-16T15:35:09;8.60;;;2.50;;
68247;SDS011;55064;49.636;12.164;2022-10-16T15:37:37;7.07;;;2.58;;
68247;SDS011;55064;49.636;12.164;2022-10-16T15:40:05;7.32;;;2.80;;
68247;SDS011;55064;49.636;12.164;2022-10-16T15:42:34;7.05;;;2.88;;
68247;SDS011;55064;49.636;12.164;2022-10-16T15:45:02;6.10;;;2.53;;
68247;SDS011;55064;49.636;12.164;2022-10-16T15:47:29;7.13;;;2.70;;
68247;SDS011;55064;49.636;12.164;2022-10-16T15:49:54;9.05;;;2.75;;
68247;SDS011;55064;49.636;12.164;2022-10-16T15:52:19;7.03;;;2.83;;
68247;SDS011;55064;49.636;12.164;2022-10-16T15:54:47;6.33;;;2.60;;
68247;SDS011;55064;49.636;12.164;2022-10-16T15:57:13;6.82;;;2.83;;
68247;SDS011;55064;49.636;12.164;2022-10-16T15:59:41;7.00;;;2.40;;
68247;SDS011;55064;49.636;12.164;2022-10-16T16:02:11;6.78;;;2.60;;
68247;SDS011;55064;49.636;12.164;2022-10-16T16:04:38;6.30;;;2.40;;
68247;SDS011;55064;49.636;12.164;2022-10-16T16:07:09;9.68;;;2.50;;
68247;SDS011;55064;49.636;12.164;2022-10-16T16:09:34;6.63;;;2.97;;
68247;SDS011;55064;49.636;12.164;2022-10-16T16:12:02;6.38;;;2.40;;
68247;SDS011;55064;49.636;12.164;2022-10-16T16:14:28;7.17;;;2.63;;
68247;SDS011;55064;49.636;12.164;2022-10-16T16:16:54;9.68;;;3.95;;
68247;SDS011;55064;49.636;12.164;2022-10-16T16:19:20;7.18;;;3.90;;
68247;SDS011;55064;49.636;12.164;2022-10-16T16:21:49;7.30;;;3.30;;
68247;SDS011;55064;49.636;12.164;2022-10-16T16:24:15;9.52;;;4.10;;
68247;SDS011;55064;49.636;12.164;2022-10-16T16:26:40;10.43;;;4.72;;
68247;SDS011;55064;49.636;12.164;2022-10-16T16:29:12;11.00;;;3.73;;
68247;SDS011;55064;49.636;12.164;2022-10-16T16:31:39;5.95;;;3.10;;
68247;SDS011;55064;49.636;12.164;2022-10-16T16:34:05;9.45;;;2.90;;
68247;SDS011;55064;49.636;12.164;2022-10-16T16:36:31;28.53;;;14.40;;
68247;SDS011;55064;49.636;12.164;2022-10-16T16:38:57;26.58;;;15.35;;
68247;SDS011;55064;49.636;12.164;2022-10-16T16:41:26;23.45;;;13.10;;
68247;SDS011;55064;49.636;12.164;2022-10-16T16:44:00;15.43;;;7.35;;
68247;SDS011;55064;49.636;12.164;2022-10-16T16:46:27;16.35;;;10.65;;
68247;SDS011;55064;49.636;12.164;2022-10-16T16:48:52;15.03;;;9.37;;
68247;SDS011;55064;49.636;12.164;2022-10-16T16:51:22;12.18;;;8.07;;
68247;SDS011;55064;49.636;12.164;2022-10-16T16:53:48;16.87;;;6.63;;
68247;SDS011;55064;49.636;12.164;2022-10-16T16:56:15;11.82;;;6.00;;
68247;SDS011;55064;49.636;12.164;2022-10-16T16:58:47;14.77;;;5.50;;
68247;SDS011;55064;49.636;12.164;2022-10-16T17:01:14;17.10;;;7.78;;
68247;SDS011;55064;49.636;12.164;2022-10-16T17:03:42;11.32;;;4.50;;
68247;SDS011;55064;49.636;12.164;2022-10-16T17:06:14;14.18;;;5.55;;